createdAt,value
2018-04-13T00:00:28.966Z,21.73
2018-04-13T00:02:55.013Z,20.80
2018-04-13T00:05:21.144Z,20.87
2018-04-13T00:07:47.239Z,21.90
2018-04-13T00:10:13.565Z,22.20
2018-04-13T00:12:39.661Z,21.63
2018-04-13T00:15:06.435Z,21.83
2018-04-13T00:17:32.690Z,23.30
2018-04-13T00:19:58.781Z,21.50
2018-04-13T00:22:24.830Z,22.50
2018-04-13T00:24:50.957Z,22.33
2018-04-13T00:27:17.068Z,20.90
2018-04-13T00:29:43.135Z,21.90
2018-04-13T00:32:09.961Z,23.43
2018-04-13T00:34:36.030Z,21.70
2018-04-13T00:37:02.079Z,22.03
2018-04-13T00:39:28.886Z,23.00
2018-04-13T00:41:55.060Z,23.90
2018-04-13T00:44:21.181Z,23.00
2018-04-13T00:46:47.278Z,24.40
2018-04-13T00:49:13.364Z,22.57
2018-04-13T00:51:39.421Z,23.10
2018-04-13T00:54:05.467Z,24.37
2018-04-13T00:56:32.270Z,23.70
2018-04-13T00:58:58.315Z,25.07
2018-04-13T01:01:24.337Z,23.43
2018-04-13T01:03:50.425Z,23.60
2018-04-13T01:06:17.224Z,24.17
2018-04-13T01:08:43.309Z,24.23
2018-04-13T01:11:09.368Z,23.00
2018-04-13T01:13:36.198Z,24.23
2018-04-13T01:16:02.481Z,24.20
2018-04-13T01:18:28.545Z,25.77
2018-04-13T01:20:54.594Z,23.90
2018-04-13T01:23:20.709Z,23.07
2018-04-13T01:25:46.756Z,23.30
2018-04-13T01:28:12.836Z,24.87
2018-04-13T01:30:38.936Z,24.50
2018-04-13T01:33:05.013Z,24.80
2018-04-13T01:35:31.058Z,26.00
2018-04-13T01:37:57.134Z,26.53
2018-04-13T01:40:23.257Z,25.77
2018-04-13T01:42:50.111Z,27.23
2018-04-13T01:45:16.238Z,27.10
2018-04-13T01:47:42.276Z,27.60
2018-04-13T01:50:09.093Z,27.13
2018-04-13T01:52:35.187Z,27.20
2018-04-13T01:55:01.290Z,26.57
2018-04-13T01:57:27.338Z,26.80
2018-04-13T01:59:54.205Z,27.13
2018-04-13T02:02:21.099Z,27.57
2018-04-13T02:04:47.213Z,27.57
2018-04-13T02:07:13.281Z,25.80
2018-04-13T02:09:39.325Z,28.10
2018-04-13T02:12:05.740Z,27.13
2018-04-13T02:14:31.813Z,28.83
2018-04-13T02:16:57.894Z,29.33
2018-04-13T02:19:24.708Z,27.73
2018-04-13T02:21:51.038Z,30.10
2018-04-13T02:24:17.077Z,29.33
2018-04-13T02:26:43.133Z,29.80
2018-04-13T02:29:09.621Z,29.90
2018-04-13T02:31:35.711Z,29.27
2018-04-13T02:34:01.751Z,27.73
2018-04-13T02:36:27.841Z,27.80
2018-04-13T02:38:53.920Z,28.60
2018-04-13T02:41:19.984Z,28.70
2018-04-13T02:43:46.070Z,27.73
2018-04-13T02:46:12.296Z,29.40
2018-04-13T02:48:38.366Z,29.10
2018-04-13T02:51:04.472Z,26.80
2018-04-13T02:53:30.553Z,26.33
2018-04-13T02:55:56.594Z,29.00
2018-04-13T02:58:23.399Z,29.33
2018-04-13T03:00:49.473Z,26.80
2018-04-13T03:03:16.306Z,28.73
2018-04-13T03:05:43.104Z,28.77
2018-04-13T03:08:09.168Z,28.80
2018-04-13T03:10:35.249Z,28.07
2018-04-13T03:13:01.376Z,27.30
2018-04-13T03:15:27.462Z,27.70
2018-04-13T03:17:53.537Z,28.60
2018-04-13T03:20:19.872Z,27.87
2018-04-13T03:22:45.945Z,29.37
2018-04-13T03:25:11.996Z,28.37
2018-04-13T03:27:38.057Z,27.53
2018-04-13T03:30:04.204Z,29.57
2018-04-13T03:32:31.046Z,29.70
2018-04-13T03:34:57.108Z,30.20
2018-04-13T03:37:23.932Z,29.70
2018-04-13T03:39:50.082Z,28.87
2018-04-13T03:42:16.153Z,28.73
2018-04-13T03:44:42.923Z,27.73
2018-04-13T03:47:09.036Z,27.77
2018-04-13T03:49:35.206Z,30.63
2018-04-13T03:52:01.293Z,29.57
2018-04-13T03:54:27.394Z,30.47
2018-04-13T03:56:53.442Z,30.23
2018-04-13T03:59:19.582Z,31.70
2018-04-13T04:01:45.636Z,31.30
2018-04-13T04:04:11.695Z,30.27
2018-04-13T04:06:38.513Z,30.40
2018-04-13T04:09:04.650Z,31.53
2018-04-13T04:11:30.707Z,30.50
2018-04-13T04:13:56.762Z,31.63
2018-04-13T04:16:22.807Z,32.70
2018-04-13T04:18:49.650Z,30.63
2018-04-13T04:21:28.028Z,31.17
2018-04-13T04:24:06.459Z,29.83
2018-04-13T04:26:46.635Z,33.10
2018-04-13T04:29:12.725Z,30.63
2018-04-13T04:31:39.548Z,30.17
2018-04-13T04:34:05.847Z,30.47
2018-04-13T04:36:31.935Z,30.50
2018-04-13T04:38:58.011Z,29.70
2018-04-13T04:41:24.120Z,31.83
2018-04-13T04:43:50.221Z,30.30
2018-04-13T04:46:16.307Z,32.73
2018-04-13T04:48:43.124Z,30.03
2018-04-13T04:51:09.250Z,29.97
2018-04-13T04:53:35.336Z,31.30
2018-04-13T04:56:01.706Z,30.60
2018-04-13T04:58:28.512Z,30.63
2018-04-13T05:00:54.612Z,31.00
2018-04-13T05:03:20.728Z,29.93
2018-04-13T05:05:46.974Z,30.10
2018-04-13T05:08:13.742Z,32.00
2018-04-13T05:10:40.163Z,31.27
2018-04-13T05:13:06.947Z,30.20
2018-04-13T05:15:32.991Z,30.67
2018-04-13T05:17:59.069Z,31.43
2018-04-13T05:20:25.160Z,31.50
2018-04-13T05:22:51.312Z,28.70
2018-04-13T05:25:17.809Z,32.03
2018-04-13T05:27:44.123Z,30.93
2018-04-13T05:30:11.096Z,30.73
2018-04-13T05:32:37.285Z,30.03
2018-04-13T05:35:03.343Z,30.90
2018-04-13T05:37:29.383Z,31.60
2018-04-13T05:39:55.471Z,30.73
2018-04-13T05:42:22.352Z,29.83
2018-04-13T05:44:48.479Z,30.90
2018-04-13T05:47:14.875Z,29.30
2018-04-13T05:49:40.976Z,30.27
2018-04-13T05:52:07.059Z,30.70
2018-04-13T05:54:33.210Z,30.23
2018-04-13T05:56:59.282Z,30.70
2018-04-13T05:59:25.345Z,29.40
2018-04-13T06:01:51.454Z,30.77
2018-04-13T06:04:18.345Z,29.27
2018-04-13T06:06:44.465Z,30.57
2018-04-13T06:09:10.549Z,29.60
2018-04-13T06:11:36.678Z,30.37
2018-04-13T06:14:02.740Z,32.07
2018-04-13T06:16:28.786Z,29.60
2018-04-13T06:18:55.689Z,29.53
2018-04-13T06:21:22.460Z,29.47
2018-04-13T06:23:48.603Z,29.13
2018-04-13T06:26:14.763Z,29.93
2018-04-13T06:28:40.876Z,29.80
2018-04-13T06:31:06.940Z,29.77
2018-04-13T06:33:33.404Z,31.23
2018-04-13T06:36:00.232Z,30.30
2018-04-13T06:38:26.273Z,30.27
2018-04-13T06:40:52.380Z,30.53
2018-04-13T06:43:18.474Z,30.10
2018-04-13T06:45:45.962Z,30.67
2018-04-13T06:48:12.156Z,32.33
2018-04-13T06:50:38.237Z,30.90
2018-04-13T06:53:04.342Z,32.57
2018-04-13T06:55:30.458Z,31.20
2018-04-13T06:57:56.594Z,30.63
2018-04-13T07:00:22.731Z,31.23
2018-04-13T07:02:48.937Z,33.07
2018-04-13T07:05:15.147Z,34.00
2018-04-13T07:07:41.286Z,36.87
2018-04-13T07:10:08.202Z,33.03
2018-04-13T07:12:34.366Z,32.47
2018-04-13T07:15:00.491Z,32.30
2018-04-13T07:17:27.072Z,32.50
2018-04-13T07:19:53.158Z,31.43
2018-04-13T07:22:19.493Z,33.33
2018-04-13T07:24:45.598Z,32.93
2018-04-13T07:27:12.410Z,34.50
2018-04-13T07:29:38.599Z,32.53
2018-04-13T07:32:05.932Z,34.30
2018-04-13T07:34:32.263Z,35.92
2018-04-13T07:36:58.316Z,36.40
2018-04-13T07:39:24.528Z,34.93
2018-04-13T07:41:58.183Z,32.10
2018-04-13T07:44:24.367Z,31.90
2018-04-13T07:46:50.570Z,36.60
2018-04-13T07:49:17.457Z,35.88
2018-04-13T07:51:44.075Z,34.73
2018-04-13T07:54:10.135Z,33.10
2018-04-13T07:56:36.924Z,33.80
2018-04-13T07:59:03.041Z,33.57
2018-04-13T08:01:29.164Z,32.83
2018-04-13T08:03:56.266Z,33.33
2018-04-13T08:06:22.117Z,33.10
2018-04-13T08:08:48.260Z,34.13
2018-04-13T08:11:14.787Z,33.80
2018-04-13T08:13:40.872Z,35.50
2018-04-13T08:16:07.722Z,34.27
2018-04-13T08:18:34.095Z,35.00
2018-04-13T08:21:00.142Z,33.67
2018-04-13T08:23:26.200Z,33.10
2018-04-13T08:25:53.065Z,32.80
2018-04-13T08:28:19.169Z,33.20
2018-04-13T08:30:45.243Z,32.43
2018-04-13T08:33:11.551Z,33.80
2018-04-13T08:35:37.738Z,33.17
2018-04-13T08:38:03.785Z,30.77
2018-04-13T08:40:29.886Z,32.17
2018-04-13T08:42:56.032Z,31.50
2018-04-13T08:45:22.223Z,32.40
2018-04-13T08:47:48.325Z,35.53
2018-04-13T08:50:14.403Z,32.03
2018-04-13T08:52:40.475Z,31.47
2018-04-13T08:55:06.530Z,30.43
2018-04-13T08:57:32.595Z,33.47
2018-04-13T08:59:58.671Z,31.53
2018-04-13T09:02:24.744Z,32.87
2018-04-13T09:04:50.843Z,33.73
2018-04-13T09:07:16.993Z,31.83
2018-04-13T09:09:43.474Z,31.20
2018-04-13T09:12:09.541Z,32.30
2018-04-13T09:14:38.537Z,33.43
2018-04-13T09:17:04.583Z,32.23
2018-04-13T09:19:30.638Z,32.70
2018-04-13T09:21:57.502Z,32.40
2018-04-13T09:24:24.370Z,30.40
2018-04-13T09:26:50.576Z,30.50
2018-04-13T09:29:17.403Z,33.83
2018-04-13T09:31:43.512Z,31.30
2018-04-13T09:34:09.586Z,31.90
2018-04-13T09:36:35.744Z,31.63
2018-04-13T09:39:02.662Z,33.73
2018-04-13T09:41:28.721Z,33.57
2018-04-13T09:43:54.818Z,31.43
2018-04-13T09:46:21.767Z,34.00
2018-04-13T09:48:47.857Z,32.60
2018-04-13T09:51:13.906Z,34.17
2018-04-13T09:53:40.182Z,32.03
2018-04-13T09:56:06.233Z,35.20
2018-04-13T09:58:32.286Z,33.10
2018-04-13T10:00:59.326Z,31.67
2018-04-13T10:03:25.357Z,32.73
2018-04-13T10:05:51.451Z,31.00
2018-04-13T10:08:17.833Z,35.63
2018-04-13T10:10:44.226Z,45.80
2018-04-13T10:13:11.085Z,32.10
2018-04-13T10:15:37.499Z,32.87
2018-04-13T10:18:03.530Z,31.67
2018-04-13T10:20:29.607Z,33.27
2018-04-13T10:22:55.879Z,31.10
2018-04-13T10:25:22.702Z,31.10
2018-04-13T10:27:49.463Z,31.70
2018-04-13T10:30:16.313Z,31.43
2018-04-13T10:32:42.643Z,31.93
2018-04-13T10:35:08.746Z,32.70
2018-04-13T10:37:34.790Z,32.60
2018-04-13T10:40:00.847Z,31.63
2018-04-13T10:42:26.934Z,31.97
2018-04-13T10:44:52.958Z,32.63
2018-04-13T10:47:19.187Z,33.93
2018-04-13T10:49:45.510Z,35.13
2018-04-13T10:52:11.551Z,35.40
2018-04-13T10:54:37.740Z,34.30
2018-04-13T10:57:04.752Z,33.87
2018-04-13T10:59:30.828Z,35.93
2018-04-13T11:01:56.899Z,37.13
2018-04-13T11:04:24.005Z,39.60
2018-04-13T11:06:50.143Z,41.80
2018-04-13T11:09:16.271Z,39.50
2018-04-13T11:11:42.434Z,41.80
2018-04-13T11:14:08.604Z,44.20
2018-04-13T11:16:35.789Z,43.60
2018-04-13T11:19:02.151Z,42.03
2018-04-13T11:21:28.207Z,42.90
2018-04-13T11:23:54.296Z,40.37
2018-04-13T11:26:20.464Z,41.63
2018-04-13T11:28:46.494Z,43.23
2018-04-13T11:31:19.587Z,41.33
2018-04-13T11:33:45.653Z,43.70
2018-04-13T11:36:11.767Z,46.30
2018-04-13T11:38:38.681Z,45.30
2018-04-13T11:41:04.826Z,46.17
2018-04-13T11:43:31.741Z,44.93
2018-04-13T11:45:58.585Z,41.77
2018-04-13T11:48:24.619Z,41.97
2018-04-13T11:50:50.940Z,41.30
2018-04-13T11:53:17.065Z,42.97
2018-04-13T11:55:43.904Z,42.20
2018-04-13T11:58:10.029Z,43.87
2018-04-13T12:00:36.265Z,43.90
2018-04-13T12:03:02.364Z,42.27
2018-04-13T12:05:28.430Z,41.93
2018-04-13T12:07:54.575Z,41.33
2018-04-13T12:10:20.676Z,41.40
2018-04-13T12:12:46.788Z,41.40
2018-04-13T12:15:12.866Z,41.57
2018-04-13T12:17:38.943Z,42.80
2018-04-13T12:20:05.069Z,42.30
2018-04-13T12:22:34.142Z,44.23
2018-04-13T12:25:00.212Z,43.23
2018-04-13T12:27:26.305Z,44.50
2018-04-13T12:29:52.394Z,40.07
2018-04-13T12:32:18.467Z,42.70
2018-04-13T12:34:44.512Z,41.23
2018-04-13T12:37:11.318Z,40.30
2018-04-13T12:39:37.388Z,39.50
2018-04-13T12:42:03.506Z,41.27
2018-04-13T12:44:29.551Z,41.93
2018-04-13T12:46:56.026Z,43.00
2018-04-13T12:49:22.139Z,42.20
2018-04-13T12:51:49.198Z,39.80
2018-04-13T12:54:15.402Z,38.53
2018-04-13T12:56:42.264Z,38.67
2018-04-13T12:59:08.325Z,36.87
2018-04-13T13:01:34.419Z,39.23
2018-04-13T13:04:00.522Z,35.03
2018-04-13T13:06:26.598Z,37.40
2018-04-13T13:08:52.692Z,37.63
2018-04-13T13:11:18.841Z,35.90
2018-04-13T13:13:45.642Z,37.33
2018-04-13T13:16:11.732Z,36.07
2018-04-13T13:18:37.848Z,34.70
2018-04-13T13:21:03.934Z,36.47
2018-04-13T13:23:30.656Z,36.33
2018-04-13T13:25:56.742Z,33.77
2018-04-13T13:28:22.814Z,32.97
2018-04-13T13:30:48.927Z,34.30
2018-04-13T13:33:14.967Z,33.50
2018-04-13T13:35:41.082Z,33.07
2018-04-13T13:38:07.505Z,31.63
2018-04-13T13:40:33.648Z,33.03
2018-04-13T13:42:59.713Z,31.23
2018-04-13T13:45:25.942Z,29.63
2018-04-13T13:47:52.096Z,30.30
2018-04-13T13:50:19.222Z,28.97
2018-04-13T13:52:45.319Z,28.10
2018-04-13T13:55:12.152Z,30.20
2018-04-13T13:57:38.269Z,28.80
2018-04-13T14:00:04.323Z,27.17
2018-04-13T14:02:30.399Z,27.50
2018-04-13T14:04:56.794Z,27.77
2018-04-13T14:07:22.961Z,26.50
2018-04-13T14:09:49.387Z,27.77
2018-04-13T14:12:15.604Z,26.27
2018-04-13T14:14:42.405Z,25.60
2018-04-13T14:17:08.445Z,27.27
2018-04-13T14:19:34.553Z,24.90
2018-04-13T14:22:00.660Z,25.50
2018-04-13T14:24:26.778Z,23.80
2018-04-13T14:26:52.978Z,23.03
2018-04-13T14:29:19.110Z,22.50
2018-04-13T14:31:45.206Z,22.40
2018-04-13T14:34:11.253Z,21.07
2018-04-13T14:36:37.484Z,20.90
2018-04-13T14:39:03.571Z,19.50
2018-04-13T14:41:29.606Z,19.33
2018-04-13T14:43:55.813Z,19.43
2018-04-13T14:46:21.859Z,17.77
2018-04-13T14:48:48.682Z,18.03
2018-04-13T14:51:14.843Z,18.57
2018-04-13T14:53:40.885Z,17.90
2018-04-13T14:56:06.989Z,18.43
2018-04-13T14:58:33.066Z,18.50
2018-04-13T15:00:59.224Z,18.13
2018-04-13T15:03:25.319Z,23.43
2018-04-13T15:05:51.417Z,27.43
2018-04-13T15:08:17.486Z,23.00
2018-04-13T15:10:43.555Z,17.97
2018-04-13T15:13:10.376Z,19.80
2018-04-13T15:15:36.496Z,17.57
2018-04-13T15:18:02.571Z,19.53
2018-04-13T15:20:28.655Z,21.50
2018-04-13T15:22:54.746Z,21.80
2018-04-13T15:25:21.011Z,20.40
2018-04-13T15:27:47.816Z,20.80
2018-04-13T15:30:14.035Z,21.23
2018-04-13T15:32:47.025Z,22.57
2018-04-13T15:35:13.225Z,23.53
2018-04-13T15:37:39.240Z,23.10
2018-04-13T15:40:05.318Z,24.23
2018-04-13T15:42:32.090Z,23.23
2018-04-13T15:44:58.148Z,23.27
2018-04-13T15:47:24.237Z,24.83
2018-04-13T15:49:50.346Z,23.43
2018-04-13T15:52:16.407Z,25.27
2018-04-13T15:54:42.717Z,25.50
2018-04-13T15:57:09.194Z,26.80
2018-04-13T15:59:35.283Z,26.00
2018-04-13T16:02:01.421Z,27.37
2018-04-13T16:04:27.515Z,28.10
2018-04-13T16:06:53.585Z,27.80
2018-04-13T16:09:20.487Z,28.37
2018-04-13T16:11:46.528Z,27.77
2018-04-13T16:14:12.641Z,28.07
2018-04-13T16:16:38.764Z,28.80
2018-04-13T16:19:04.907Z,29.40
2018-04-13T16:21:30.969Z,30.63
2018-04-13T16:23:57.034Z,30.60
2018-04-13T16:26:23.658Z,30.37
2018-04-13T16:28:49.745Z,28.67
2018-04-13T16:31:16.922Z,32.30
2018-04-13T16:33:43.023Z,31.13
2018-04-13T16:36:09.115Z,32.47
2018-04-13T16:38:35.208Z,32.83
2018-04-13T16:41:01.311Z,31.80
2018-04-13T16:43:27.515Z,32.30
2018-04-13T16:45:54.362Z,31.67
2018-04-13T16:48:21.202Z,32.17
2018-04-13T16:50:47.246Z,32.27
2018-04-13T16:53:14.024Z,32.50
2018-04-13T16:55:40.110Z,33.60
2018-04-13T16:58:06.172Z,34.70
2018-04-13T17:00:33.088Z,33.07
2018-04-13T17:02:59.264Z,34.40
2018-04-13T17:05:25.321Z,36.40
2018-04-13T17:07:52.422Z,37.10
2018-04-13T17:10:18.742Z,33.43
2018-04-13T17:12:44.824Z,32.90
2018-04-13T17:15:10.911Z,34.53
2018-04-13T17:17:37.290Z,35.20
2018-04-13T17:20:03.362Z,36.50
2018-04-13T17:22:29.454Z,34.80
2018-04-13T17:24:55.629Z,35.53
2018-04-13T17:27:21.706Z,37.10
2018-04-13T17:29:47.786Z,35.03
2018-04-13T17:32:13.957Z,37.23
2018-04-13T17:34:40.065Z,36.37
2018-04-13T17:37:13.247Z,36.27
2018-04-13T17:39:39.330Z,36.20
2018-04-13T17:42:06.198Z,35.93
2018-04-13T17:44:32.298Z,35.20
2018-04-13T17:46:58.399Z,37.33
2018-04-13T17:49:24.487Z,37.00
2018-04-13T17:51:50.794Z,35.80
2018-04-13T17:54:17.073Z,35.17
2018-04-13T17:56:43.281Z,35.07
2018-04-13T17:59:09.377Z,39.30
2018-04-13T18:01:35.809Z,42.20
2018-04-13T18:04:01.881Z,44.70
2018-04-13T18:06:27.959Z,42.10
2018-04-13T18:08:54.031Z,45.87
2018-04-13T18:11:20.085Z,50.57
2018-04-13T18:13:46.208Z,51.57
2018-04-13T18:16:12.284Z,52.30
2018-04-13T18:18:38.326Z,51.60
2018-04-13T18:21:04.424Z,53.60
2018-04-13T18:23:31.251Z,53.20
2018-04-13T18:25:57.318Z,55.00
2018-04-13T18:28:24.114Z,53.17
2018-04-13T18:30:50.190Z,51.87
2018-04-13T18:33:16.474Z,52.40
2018-04-13T18:35:42.539Z,48.13
2018-04-13T18:38:08.617Z,52.50
2018-04-13T18:40:34.710Z,50.90
2018-04-13T18:43:00.827Z,53.10
2018-04-13T18:45:26.901Z,47.70
2018-04-13T18:47:53.019Z,50.20
2018-04-13T18:50:19.177Z,47.13
2018-04-13T18:52:45.197Z,47.47
2018-04-13T18:55:11.533Z,48.20
2018-04-13T18:57:37.614Z,48.37
2018-04-13T19:00:03.893Z,49.43
2018-04-13T19:02:30.733Z,46.27
2018-04-13T19:04:56.780Z,46.67
2018-04-13T19:07:23.598Z,47.30
2018-04-13T19:09:49.729Z,47.50
2018-04-13T19:12:15.775Z,47.20
2018-04-13T19:14:41.948Z,43.70
2018-04-13T19:17:08.200Z,43.10
2018-04-13T19:19:34.259Z,43.80
2018-04-13T19:22:00.772Z,41.30
2018-04-13T19:24:27.621Z,43.03
2018-04-13T19:26:53.746Z,42.93
2018-04-13T19:29:19.862Z,40.10
2018-04-13T19:31:45.996Z,40.73
2018-04-13T19:34:12.082Z,41.20
2018-04-13T19:36:38.236Z,38.67
2018-04-13T19:39:04.324Z,39.03
2018-04-13T19:41:30.454Z,39.53
2018-04-13T19:43:56.543Z,38.90
2018-04-13T19:46:23.364Z,37.90
2018-04-13T19:48:49.483Z,39.60
2018-04-13T19:51:15.529Z,37.77
2018-04-13T19:53:41.612Z,38.80
2018-04-13T19:56:08.436Z,38.97
2018-04-13T19:58:34.501Z,38.87
2018-04-13T20:01:01.386Z,36.70
2018-04-13T20:03:27.497Z,37.37
2018-04-13T20:05:54.317Z,40.97
2018-04-13T20:08:20.585Z,37.40
2018-04-13T20:10:46.754Z,37.97
2018-04-13T20:13:12.899Z,37.10
2018-04-13T20:15:38.997Z,37.00
2018-04-13T20:18:05.152Z,38.63
2018-04-13T20:20:31.351Z,38.50
2018-04-13T20:22:57.587Z,38.50
2018-04-13T20:25:24.338Z,37.83
2018-04-13T20:27:50.709Z,37.47
2018-04-13T20:30:16.894Z,39.13
2018-04-13T20:32:42.988Z,38.67
2018-04-13T20:35:09.095Z,36.90
2018-04-13T20:37:35.989Z,38.57
2018-04-13T20:40:02.277Z,37.70
2018-04-13T20:42:28.520Z,39.00
2018-04-13T20:44:54.717Z,37.33
2018-04-13T20:47:25.041Z,37.30
2018-04-13T20:49:52.131Z,36.03
2018-04-13T20:52:20.679Z,37.87
2018-04-13T20:54:46.746Z,35.77
2018-04-13T20:57:12.863Z,37.97
2018-04-13T20:59:39.085Z,38.37
2018-04-13T21:02:05.206Z,36.87
2018-04-13T21:04:31.289Z,39.30
2018-04-13T21:06:57.696Z,39.37
2018-04-13T21:09:23.762Z,37.00
2018-04-13T21:11:49.825Z,37.77
2018-04-13T21:14:16.145Z,39.20
2018-04-13T21:16:42.396Z,38.10
2018-04-13T21:19:08.531Z,38.37
2018-04-13T21:21:34.685Z,39.63
2018-04-13T21:24:00.768Z,39.23
2018-04-13T21:26:26.826Z,39.23
2018-04-13T21:28:53.281Z,38.10
2018-04-13T21:31:19.387Z,39.10
2018-04-13T21:33:45.464Z,38.70
2018-04-13T21:36:11.552Z,40.70
2018-04-13T21:38:37.661Z,39.33
2018-04-13T21:41:03.835Z,39.17
2018-04-13T21:43:30.703Z,37.83
2018-04-13T21:45:56.847Z,38.10
2018-04-13T21:48:22.896Z,38.17
2018-04-13T21:50:48.998Z,38.23
2018-04-13T21:53:15.866Z,40.73
2018-04-13T21:55:41.934Z,41.10
2018-04-13T21:58:08.106Z,40.13
2018-04-13T22:00:34.231Z,41.87
2018-04-13T22:03:00.358Z,39.60
2018-04-13T22:05:26.609Z,40.20
2018-04-13T22:07:52.734Z,40.80
2018-04-13T22:10:18.826Z,40.97
2018-04-13T22:12:59.164Z,39.97
2018-04-13T22:15:25.766Z,39.87
2018-04-13T22:17:51.981Z,38.93
2018-04-13T22:20:18.122Z,39.67
2018-04-13T22:22:44.236Z,39.43
2018-04-13T22:25:10.563Z,40.53
2018-04-13T22:27:36.651Z,37.50
2018-04-13T22:30:03.748Z,39.40
2018-04-13T22:32:29.862Z,41.57
2018-04-13T22:34:56.704Z,40.93
2018-04-13T22:37:22.798Z,39.40
2018-04-13T22:39:49.222Z,39.10
2018-04-13T22:42:15.345Z,40.30
2018-04-13T22:44:41.435Z,39.20
2018-04-13T22:47:07.510Z,38.93
2018-04-13T22:49:33.584Z,40.80
2018-04-13T22:51:59.689Z,42.40
2018-04-13T22:54:26.524Z,41.80
2018-04-13T22:56:52.615Z,42.27
2018-04-13T22:59:18.702Z,41.50
2018-04-13T23:01:44.801Z,43.20
2018-04-13T23:04:10.857Z,43.20
2018-04-13T23:06:36.909Z,41.07
2018-04-13T23:09:02.975Z,41.97
2018-04-13T23:11:29.088Z,42.07
2018-04-13T23:13:55.249Z,43.60
2018-04-13T23:16:21.409Z,43.80
2018-04-13T23:18:47.480Z,45.37
2018-04-13T23:21:13.580Z,43.67
2018-04-13T23:23:39.693Z,43.70
2018-04-13T23:26:06.562Z,42.80
2018-04-13T23:28:32.616Z,44.03
2018-04-13T23:30:58.712Z,40.17
2018-04-13T23:33:24.777Z,41.23
2018-04-13T23:35:51.642Z,42.50
2018-04-13T23:38:17.704Z,44.20
2018-04-13T23:40:43.891Z,41.40
2018-04-13T23:43:10.700Z,42.33
2018-04-13T23:45:36.773Z,41.23
2018-04-13T23:48:03.588Z,42.83
2018-04-13T23:50:29.779Z,42.50
2018-04-13T23:52:56.011Z,44.67
2018-04-13T23:55:22.944Z,42.67
2018-04-13T23:57:49.017Z,44.33
